GSPO2: Great Salt Plains Lake

Data processed at Fri Dec 08 2017 23:31


All information presented herein is the property of the government of the United States of America and may be revised or deleted at any time without prior notice.
Dissemination of this information without the expressed written consent of the Public Affairs Office, Tulsa District U.S. Army Corps of Engineers is strictly prohibited.
These data are gathered electronically and, as presented, have not undergone any form of quality control. These data are not guaranteed to be valid or correct.
Go to home page.
Go to station list.

Upstream stations:

Downstream station:
Previous Day
Next Day
Current Day
    
SHEF ID:       GSPO2     Great Salt Plains Lake
STATION TYPE:  RESERVOIR
Normal Pool:  Bottom =  1118.00, Top =  1125.00

               PRECIP  RIV-FLOW ELEVATION   STORAGE    INFLOW   RELEASE  AIR-TEMP  WIND-DIRWIND-SPEED REL-HUMID SOLAR-RAD   VOLTAGE  BAT-LOAD
                   in       cfs        ft     ac-ft       cfs       cfs         F       deg       mph         %      W/m2      volt      volt
              Ccp-Rev  Regi-Rev   Ccp-Rev   Ccp-Rev  Regi-Rev  Regi-Rev   Ccp-Rev   Ccp-Rev   Ccp-Rev   Ccp-Rev   Ccp-Rev   Ccp-Rev   Ccp-Rev
(US/Central)
12/06 00:00      0.00      ----   1125.22     28698      1012       123     36.68    240.50     11.80     45.54      0.00     13.58      ----
12/06 01:00      0.00      ----   1125.24     28906       489       108     38.48    252.30     13.90     51.73      0.00     13.58      ----
12/06 02:00      0.00      ----   1125.18     28282       489        97     37.54    255.90     12.70     51.41      0.00     13.58      ----
12/06 03:00      0.00      ----   1125.17     28178       489        76     35.69    272.00     11.10     53.68      0.00     13.58      ----
12/06 04:00      0.00      ----   1125.23     28802         0        91     34.14    273.40     11.10     54.68      0.00     13.58      ----
12/06 05:00      0.00      ----   1125.12     27658        19        77     35.06    273.00     11.00     54.24      0.00     13.58      ----
12/06 06:00      0.00      ----   1125.22     28698        19        74     34.18    264.40     10.30     57.61      0.00     13.58      ----
12/06 07:00      0.00      ----   1125.22     28698        31       102     32.61    270.50     12.30     57.99      0.00     13.58      ----
12/06 08:00      0.00      ----   1125.16     28074        42        85     31.75    269.30      8.90     62.79      0.00     13.58      ----
12/06 09:00      0.00      ----   1125.14     27866        53        63     31.42    267.10      7.90     60.78    108.90     13.58      ----
12/06 10:00      0.00      ----   1125.16     28074        44        63     35.13    271.50      6.10     52.96    335.90     13.58      ----
12/06 11:00      0.00      ----   1125.11     27554        54        54     40.42    279.10      6.40     47.47    484.80     13.58      ----
12/06 12:00      0.00      ----   1125.14     27866        42        49     44.19    277.40      7.50     43.77    573.70     13.58      ----
12/06 13:00      0.00      ----   1125.16     28074        31        63     49.96    325.80     11.20     31.27    569.90     13.58      ----
12/06 14:00      0.00      ----   1125.19     28386       149        76     50.70    331.10     13.30     28.93    532.20     13.58      ----
12/06 15:00      0.00      ----   1125.23     28802       149        96     50.85    334.10     12.20     28.11    443.40     13.58      ----
12/06 16:00      0.00      ----   1125.10     27449       148        72     50.76    329.00     12.30     24.33    287.10     13.58      ----
12/06 17:00      0.00      ----   1125.13     27762       216        43     50.00    337.10      8.70     24.89     94.70     13.58      ----
12/06 18:00      0.00      ----   1125.12     27658       283        49     47.01    323.70      4.10     28.11      0.00     13.58      ----
12/06 19:00      0.00      ----   1125.09     27345       165        43     42.76    274.00      1.20     38.86      0.00     13.58      ----
12/06 20:00      0.00      ----   1125.13     27762       166        46     39.49    241.30      2.10     48.40      0.00     13.58      ----
12/06 21:00      0.00      ----   1125.15     27970       156        57     37.63    231.80      3.40     56.39      0.00     13.58      ----
12/06 22:00      0.00      ----   1125.13     27762        89        57     36.36    236.20      2.90     63.80      0.00     13.58      ----
12/06 23:00      0.00      ----   1125.06     27033        30        36     35.31    330.10      9.20     54.19      0.00     13.58      ----